Dart — OUOV2 — position and weather

sailwx.info

Track history (hours):
 
Tides and Currents Weather Stations Pressure Air Temp Water Temp Dewpoint Dewpoint Depression Visibility Wind Speed Wind Dir Waves Ship Positions

Dart

Last reported at 2016-Dec-08 19:33 UTC. Time now 2016-Dec-08 20:11 UTC.
Position N 67°21' E 014°22'.

Length 66 m; draft 3.6 m.

Type: Ship. MMSI: 219416000.

Date/timePositionNaut miles runAvg speedWind from/ knotsBaromVisibWave heightAir tempDewpointWater temp
2016-Dec-08 19:33N 67°21' E 014°22'1010.0
2016-Dec-08 18:33N 67°12' E 014°07'1010.2
2016-Dec-08 17:33N 67°04' E 013°53'10 9.8
2016-Dec-08 16:34N 66°58' E 013°33'9 8.9
2016-Dec-08 15:33N 66°51' E 013°19'19 9.6
2016-Dec-08 13:33N 66°33' E 013°01'9 9.1
2016-Dec-08 12:31N 66°23' E 012°59'66 1.8
2016-Dec-06 23:05N 65°22' E 012°04'610.5
2016-Dec-06 22:33N 65°16' E 011°58'1010.2
2016-Dec-06 21:33N 65°07' E 011°49'10 9.7
2016-Dec-06 20:33N 65°01' E 011°32'7210.1
2016-Dec-06 13:26N 64°04' E 009°51'9 9.7
2016-Dec-06 12:33N 63°55' E 009°47'1010.3
2016-Dec-06 11:33N 63°47' E 009°33'1010.1
2016-Dec-06 10:33N 63°37' E 009°28'1110.9
2016-Dec-06 09:32N 63°30' E 009°07'2110.7
2016-Dec-06 07:32N 63°22' E 008°24'1010.4
2016-Dec-06 06:33N 63°15' E 008°06'1110.6
2016-Dec-06 05:34N 63°10' E 007°46'7 6.9
2016-Dec-06 04:31N 63°03' E 007°40'0 0.0
2016-Dec-06 03:31N 63°03' E 007°40'0 0.0
2016-Dec-06 02:31N 63°03' E 007°40'0 0.0
2016-Dec-06 01:31N 63°03' E 007°40'0 0.0
2016-Dec-06 00:31N 63°03' E 007°40'0 0.0
2016-Dec-05 23:31N 63°03' E 007°40'1 1.0
2016-Dec-05 22:34N 63°04' E 007°41'6 6.3
2016-Dec-05 21:33N 63°05' E 007°27'9 9.3
2016-Dec-05 20:34N 63°01' E 007°08'10 8.7
2016-Dec-05 19:26N 62°56' E 006°49'8 8.8
2016-Dec-05 18:34N 62°50' E 006°40'11 9.8
2016-Dec-05 17:28N 62°41' E 006°27'197 5.6
2016-Dec-04 06:07N 59°27' E 005°13'6 8.8
2016-Dec-04 05:29N 59°33' E 005°12'8 9.0
2016-Dec-04 04:33N 59°40' E 005°21'10 9.6
2016-Dec-04 03:33N 59°47' E 005°33'134 5.7
2016-Dec-03 04:10N 62°01' E 005°09'17 3.0
2016-Dec-02 22:33N 62°17' E 005°20'6 6.2
2016-Dec-02 21:34N 62°19' E 005°32'18 5.7
2016-Dec-02 18:22N 62°28' E 006°05'5 6.0
2016-Dec-02 17:28N 62°33' E 006°10'6 6.4
2016-Dec-02 16:33N 62°37' E 006°20'7 7.3
2016-Dec-02 15:33N 62°43' E 006°30'9 9.4
2016-Dec-02 14:34N 62°51' E 006°40'9 8.7
2016-Dec-02 13:30N 62°59' E 006°51'7 7.9
2016-Dec-02 12:33N 63°01' E 007°07'9 8.6
2016-Dec-02 11:34N 63°04' E 007°24'8 7.8
2016-Dec-02 10:34N 63°07' E 007°40'128125.3
2016-Dec-02 09:32N 61°24' E 004°59'6 5.9
2016-Dec-02 08:33N 61°30' E 004°59'6 5.6
2016-Dec-02 07:33N 61°35' E 004°57'5 4.5
2016-Dec-02 06:32N 61°40' E 004°58'5 5.0
2016-Dec-02 05:33N 61°45' E 004°59'5 5.0
2016-Dec-02 04:31N 61°48' E 005°07'5 4.9
2016-Dec-02 03:33N 61°51' E 005°16'5 5.2
2016-Dec-02 02:32N 61°55' E 005°07'5 5.1
2016-Dec-02 01:32N 61°60' E 005°10'6 5.8
2016-Dec-02 00:33N 62°05' E 005°06'9272.6
2016-Dec-01 23:17N 63°03' E 007°40'0 0.2
2016-Dec-01 22:04N 63°03' E 007°40'0 0.0
2016-Dec-01 21:32N 63°03' E 007°40'1 0.7
2016-Dec-01 20:33N 63°03' E 007°41'0 0.2
2016-Dec-01 19:33N 63°03' E 007°41'6968.0
2016-Dec-01 18:32N 62°14' E 005°55'6911.5
2016-Dec-01 12:30N 63°03' E 007°40'2512.2
2016-Dec-01 10:26N 62°56' E 006°47'3 4.0
2016-Dec-01 09:33N 62°59' E 006°52'5 4.9
2016-Dec-01 08:33N 63°00' E 007°02'5 4.7
2016-Dec-01 07:33N 63°02' E 007°11'4 3.7
2016-Dec-01 06:33N 63°03' E 007°19'5 4.7
2016-Dec-01 05:33N 63°05' E 007°29'4 4.3
2016-Dec-01 04:33N 63°07' E 007°37'4 4.5
2016-Dec-01 03:33N 63°06' E 007°46'0 0.4
2016-Dec-01 02:33N 63°06' E 007°47'0 0.0
2016-Dec-01 01:31N 63°06' E 007°47'0 0.0
2016-Dec-01 00:33N 63°06' E 007°47'0 0.0
2016-Nov-30 23:33N 63°06' E 007°47'0 0.0
2016-Nov-30 22:31N 63°06' E 007°47'0 0.0
2016-Nov-30 21:32N 63°06' E 007°47'3 3.3
2016-Nov-30 20:33N 63°04' E 007°41'1 1.1
2016-Nov-30 19:32N 63°03' E 007°40'0 0.0
2016-Nov-30 18:32N 63°03' E 007°40'0 0.0
2016-Nov-30 17:31N 63°03' E 007°40'0 0.0
2016-Nov-30 16:33N 63°03' E 007°40'0 0.0
2016-Nov-30 15:33N 63°03' E 007°40'0 0.0
2016-Nov-30 14:34N 63°03' E 007°40'0 0.0
2016-Nov-30 13:32N 63°03' E 007°40'0 0.0
2016-Nov-30 12:32N 63°03' E 007°40'0 0.0
2016-Nov-30 11:30N 63°03' E 007°40'0 0.0
2016-Nov-30 10:33N 63°03' E 007°40'0 0.0
2016-Nov-30 09:33N 63°03' E 007°40'0 0.0
2016-Nov-30 08:31N 63°03' E 007°40'0 0.0
2016-Nov-30 07:31N 63°03' E 007°40'0 0.0
2016-Nov-30 06:31N 63°03' E 007°40'4 4.1
2016-Nov-30 05:33N 63°07' E 007°39'7 7.2
2016-Nov-30 04:33N 63°04' E 007°25'7 6.7
2016-Nov-30 03:33N 63°02' E 007°11'7 7.0
2016-Nov-30 02:33N 62°59' E 006°57'6 6.4
2016-Nov-30 01:33N 62°55' E 006°47'7 6.9
2016-Nov-30 00:33N 62°49' E 006°39'7 7.3
2016-Nov-29 23:33N 62°43' E 006°30'7 6.9
2016-Nov-29 22:33N 62°38' E 006°21'7 7.0
2016-Nov-29 21:33N 62°32' E 006°10'7 6.7
2016-Nov-29 20:33N 62°27' E 006°03'7 7.1
2016-Nov-29 19:32N 62°20' E 006°06'6 5.7
2016-Nov-29 18:33N 62°16' E 005°58'7 6.6
2016-Nov-29 17:33N 62°12' E 005°46'6 6.2
2016-Nov-29 16:32N 62°11' E 005°33'5 5.5
2016-Nov-29 15:33N 62°10' E 005°21'5 5.5
2016-Nov-29 14:33N 62°13' E 005°11'4 4.3
2016-Nov-29 13:33N 62°11' E 005°04'5 5.0
2016-Nov-29 12:33N 62°06' E 005°06'6 5.8
2016-Nov-29 11:33N 62°00' E 005°09'6 5.9
2016-Nov-29 10:33N 61°55' E 005°08'6 5.5
2016-Nov-29 09:33N 61°51' E 005°16'6 5.5
2016-Nov-29 08:33N 61°48' E 005°06'6 5.8
2016-Nov-29 07:32N 61°43' E 004°58'6 5.9
2016-Nov-29 06:32N 61°38' E 004°59'3536.0
2016-Nov-29 05:33N 62°13' E 005°07'9 7.3
2016-Nov-29 04:19N 62°12' E 005°26'9 9.4
2016-Nov-29 03:21N 62°12' E 005°46'8 8.8
2016-Nov-29 02:30N 62°17' E 005°58'4749.9
2016-Nov-29 01:33N 61°37' E 005°04'0 0.0
2016-Nov-29 00:33N 61°37' E 005°04'7357.6
2016-Nov-28 23:18N 62°39' E 006°24'6 8.7
2016-Nov-28 22:33N 62°44' E 006°31'9 8.4
2016-Nov-28 21:32N 62°52' E 006°41'8 7.6
2016-Nov-28 20:25N 62°59' E 006°52'5 6.2
2016-Nov-28 19:33N 63°00' E 007°03'  
Track history (hours):
 
Tides and Currents Weather Stations Pressure Air Temp Water Temp Dewpoint Dewpoint Depression Visibility Wind Speed Wind Dir Waves Ship Positions

Dart

Last reported at 2016-Dec-08 19:33 UTC. Time now 2016-Dec-08 20:11 UTC.
Position N 67°21' E 014°22'.

Length 66 m; draft 3.6 m.

Type: Ship. MMSI: 219416000.

Date/timePositionNaut miles runAvg speedWind from/ knotsBaromVisibWave heightAir tempDewpointWater temp
2016-Dec-08 19:33N 67°21' E 014°22'1010.0
2016-Dec-08 18:33N 67°12' E 014°07'1010.2
2016-Dec-08 17:33N 67°04' E 013°53'10 9.8
2016-Dec-08 16:34N 66°58' E 013°33'9 8.9
2016-Dec-08 15:33N 66°51' E 013°19'19 9.6
2016-Dec-08 13:33N 66°33' E 013°01'9 9.1
2016-Dec-08 12:31N 66°23' E 012°59'66 1.8
2016-Dec-06 23:05N 65°22' E 012°04'610.5
2016-Dec-06 22:33N 65°16' E 011°58'1010.2
2016-Dec-06 21:33N 65°07' E 011°49'10 9.7
2016-Dec-06 20:33N 65°01' E 011°32'7210.1
2016-Dec-06 13:26N 64°04' E 009°51'9 9.7
2016-Dec-06 12:33N 63°55' E 009°47'1010.3
2016-Dec-06 11:33N 63°47' E 009°33'1010.1
2016-Dec-06 10:33N 63°37' E 009°28'1110.9
2016-Dec-06 09:32N 63°30' E 009°07'2110.7
2016-Dec-06 07:32N 63°22' E 008°24'1010.4
2016-Dec-06 06:33N 63°15' E 008°06'1110.6
2016-Dec-06 05:34N 63°10' E 007°46'7 6.9
2016-Dec-06 04:31N 63°03' E 007°40'0 0.0
2016-Dec-06 03:31N 63°03' E 007°40'0 0.0
2016-Dec-06 02:31N 63°03' E 007°40'0 0.0
2016-Dec-06 01:31N 63°03' E 007°40'0 0.0
2016-Dec-06 00:31N 63°03' E 007°40'0 0.0
2016-Dec-05 23:31N 63°03' E 007°40'1 1.0
2016-Dec-05 22:34N 63°04' E 007°41'6 6.3
2016-Dec-05 21:33N 63°05' E 007°27'9 9.3
2016-Dec-05 20:34N 63°01' E 007°08'10 8.7
2016-Dec-05 19:26N 62°56' E 006°49'8 8.8
2016-Dec-05 18:34N 62°50' E 006°40'11 9.8
2016-Dec-05 17:28N 62°41' E 006°27'197 5.6
2016-Dec-04 06:07N 59°27' E 005°13'6 8.8
2016-Dec-04 05:29N 59°33' E 005°12'8 9.0
2016-Dec-04 04:33N 59°40' E 005°21'10 9.6
2016-Dec-04 03:33N 59°47' E 005°33'134 5.7
2016-Dec-03 04:10N 62°01' E 005°09'17 3.0
2016-Dec-02 22:33N 62°17' E 005°20'6 6.2
2016-Dec-02 21:34N 62°19' E 005°32'18 5.7
2016-Dec-02 18:22N 62°28' E 006°05'5 6.0
2016-Dec-02 17:28N 62°33' E 006°10'6 6.4
2016-Dec-02 16:33N 62°37' E 006°20'7 7.3
2016-Dec-02 15:33N 62°43' E 006°30'9 9.4
2016-Dec-02 14:34N 62°51' E 006°40'9 8.7
2016-Dec-02 13:30N 62°59' E 006°51'7 7.9
2016-Dec-02 12:33N 63°01' E 007°07'9 8.6
2016-Dec-02 11:34N 63°04' E 007°24'8 7.8
2016-Dec-02 10:34N 63°07' E 007°40'128125.3
2016-Dec-02 09:32N 61°24' E 004°59'6 5.9
2016-Dec-02 08:33N 61°30' E 004°59'6 5.6
2016-Dec-02 07:33N 61°35' E 004°57'5 4.5
2016-Dec-02 06:32N 61°40' E 004°58'5 5.0
2016-Dec-02 05:33N 61°45' E 004°59'5 5.0
2016-Dec-02 04:31N 61°48' E 005°07'5 4.9
2016-Dec-02 03:33N 61°51' E 005°16'5 5.2
2016-Dec-02 02:32N 61°55' E 005°07'5 5.1
2016-Dec-02 01:32N 61°60' E 005°10'6 5.8
2016-Dec-02 00:33N 62°05' E 005°06'9272.6
2016-Dec-01 23:17N 63°03' E 007°40'0 0.2
2016-Dec-01 22:04N 63°03' E 007°40'0 0.0
2016-Dec-01 21:32N 63°03' E 007°40'1 0.7
2016-Dec-01 20:33N 63°03' E 007°41'0 0.2
2016-Dec-01 19:33N 63°03' E 007°41'6968.0
2016-Dec-01 18:32N 62°14' E 005°55'6911.5
2016-Dec-01 12:30N 63°03' E 007°40'2512.2
2016-Dec-01 10:26N 62°56' E 006°47'3 4.0
2016-Dec-01 09:33N 62°59' E 006°52'5 4.9
2016-Dec-01 08:33N 63°00' E 007°02'5 4.7
2016-Dec-01 07:33N 63°02' E 007°11'4 3.7
2016-Dec-01 06:33N 63°03' E 007°19'5 4.7
2016-Dec-01 05:33N 63°05' E 007°29'4 4.3
2016-Dec-01 04:33N 63°07' E 007°37'4 4.5
2016-Dec-01 03:33N 63°06' E 007°46'0 0.4
2016-Dec-01 02:33N 63°06' E 007°47'0 0.0
2016-Dec-01 01:31N 63°06' E 007°47'0 0.0
2016-Dec-01 00:33N 63°06' E 007°47'0 0.0
2016-Nov-30 23:33N 63°06' E 007°47'0 0.0
2016-Nov-30 22:31N 63°06' E 007°47'0 0.0
2016-Nov-30 21:32N 63°06' E 007°47'3 3.3
2016-Nov-30 20:33N 63°04' E 007°41'1 1.1
2016-Nov-30 19:32N 63°03' E 007°40'0 0.0
2016-Nov-30 18:32N 63°03' E 007°40'0 0.0
2016-Nov-30 17:31N 63°03' E 007°40'0 0.0
2016-Nov-30 16:33N 63°03' E 007°40'0 0.0
2016-Nov-30 15:33N 63°03' E 007°40'0 0.0
2016-Nov-30 14:34N 63°03' E 007°40'0 0.0
2016-Nov-30 13:32N 63°03' E 007°40'0 0.0
2016-Nov-30 12:32N 63°03' E 007°40'0 0.0
2016-Nov-30 11:30N 63°03' E 007°40'0 0.0
2016-Nov-30 10:33N 63°03' E 007°40'0 0.0
2016-Nov-30 09:33N 63°03' E 007°40'0 0.0
2016-Nov-30 08:31N 63°03' E 007°40'0 0.0
2016-Nov-30 07:31N 63°03' E 007°40'0 0.0
2016-Nov-30 06:31N 63°03' E 007°40'4 4.1
2016-Nov-30 05:33N 63°07' E 007°39'7 7.2
2016-Nov-30 04:33N 63°04' E 007°25'7 6.7
2016-Nov-30 03:33N 63°02' E 007°11'7 7.0
2016-Nov-30 02:33N 62°59' E 006°57'6 6.4
2016-Nov-30 01:33N 62°55' E 006°47'7 6.9
2016-Nov-30 00:33N 62°49' E 006°39'7 7.3
2016-Nov-29 23:33N 62°43' E 006°30'7 6.9
2016-Nov-29 22:33N 62°38' E 006°21'7 7.0
2016-Nov-29 21:33N 62°32' E 006°10'7 6.7
2016-Nov-29 20:33N 62°27' E 006°03'7 7.1
2016-Nov-29 19:32N 62°20' E 006°06'6 5.7
2016-Nov-29 18:33N 62°16' E 005°58'7 6.6
2016-Nov-29 17:33N 62°12' E 005°46'6 6.2
2016-Nov-29 16:32N 62°11' E 005°33'5 5.5
2016-Nov-29 15:33N 62°10' E 005°21'5 5.5
2016-Nov-29 14:33N 62°13' E 005°11'4 4.3
2016-Nov-29 13:33N 62°11' E 005°04'5 5.0
2016-Nov-29 12:33N 62°06' E 005°06'6 5.8
2016-Nov-29 11:33N 62°00' E 005°09'6 5.9
2016-Nov-29 10:33N 61°55' E 005°08'6 5.5
2016-Nov-29 09:33N 61°51' E 005°16'6 5.5
2016-Nov-29 08:33N 61°48' E 005°06'6 5.8
2016-Nov-29 07:32N 61°43' E 004°58'6 5.9
2016-Nov-29 06:32N 61°38' E 004°59'3536.0
2016-Nov-29 05:33N 62°13' E 005°07'9 7.3
2016-Nov-29 04:19N 62°12' E 005°26'9 9.4
2016-Nov-29 03:21N 62°12' E 005°46'8 8.8
2016-Nov-29 02:30N 62°17' E 005°58'4749.9
2016-Nov-29 01:33N 61°37' E 005°04'0 0.0
2016-Nov-29 00:33N 61°37' E 005°04'7357.6
2016-Nov-28 23:18N 62°39' E 006°24'6 8.7
2016-Nov-28 22:33N 62°44' E 006°31'9 8.4
2016-Nov-28 21:32N 62°52' E 006°41'8 7.6
2016-Nov-28 20:25N 62°59' E 006°52'5 6.2
2016-Nov-28 19:33N 63°00' E 007°03'  

Dump ship's entire track history